Time;durP1;ratioP1;P1;durP2;ratioP2;P2;SDS_P1;SDS_P2;PMS_P1;PMS_P2;Temp;Humidity;BMP_temperature;BMP_pressure;BME280_temperature;BME280_humidity;BME280_pressure;Samples;Min_cycle;Max_cycle;Signal;HPM_P1;HPM_P2
2023/01/27 00:00:18;;;;;;;11.82;6.32;;;;;;;1.25;82.48;98374.59;5033417;28;20036;-81
2023/01/27 00:02:45;;;;;;;14.30;6.95;;;;;;;1.26;82.42;98376.22;5051375;28;20040;-82
2023/01/27 00:05:13;;;;;;;11.20;7.03;;;;;;;1.25;82.04;98374.59;5051664;28;20037;-82
2023/01/27 00:07:44;;;;;;;11.57;7.63;;;;;;;1.12;81.84;98376.63;5051176;28;20077;-82
2023/01/27 00:10:17;;;;;;;12.43;6.88;;;;;;;1.18;82.52;98371.72;5050518;28;20029;-82
2023/01/27 00:15:32;;;;;;;12.63;6.47;;;;;;;1.27;82.34;98368.34;5050891;28;20060;-81
2023/01/27 00:17:58;;;;;;;10.50;6.43;;;;;;;1.28;82.26;98369.16;5051501;28;20029;-82
2023/01/27 00:26:05;;;;;;;12.52;6.82;;;;;;;1.04;82.26;98361.78;5050827;28;20439;-81
2023/01/27 00:28:35;;;;;;;15.23;7.63;;;;;;;1.16;82.43;98371.06;5051169;28;20032;-82
2023/01/27 00:31:02;;;;;;;12.95;6.80;;;;;;;1.23;82.56;98355.81;5051032;28;20488;-81
2023/01/27 00:33:28;;;;;;;16.10;7.20;;;;;;;1.33;82.26;98367.81;5048457;28;20041;-81
2023/01/27 00:36:03;;;;;;;12.55;7.07;;;;;;;1.26;81.57;98361.56;5050787;28;20384;-81
2023/01/27 00:38:39;;;;;;;12.57;7.22;;;;;;;1.25;81.46;98365.06;5050647;28;20052;-82
2023/01/27 00:41:18;;;;;;;14.88;8.35;;;;;;;0.95;81.76;98357.41;5050554;28;20029;-82
2023/01/27 00:43:46;;;;;;;14.52;7.35;;;;;;;0.65;82.90;98355.69;5050394;28;20056;-81
2023/01/27 00:46:13;;;;;;;14.40;7.50;;;;;;;0.64;83.62;98362.59;5050802;28;20154;-83
2023/01/27 00:48:38;;;;;;;14.00;7.90;;;;;;;0.63;83.62;98360.97;5050650;28;20033;-80
2023/01/27 00:51:04;;;;;;;12.32;7.40;;;;;;;0.74;83.85;98358.31;5050605;28;20027;-81
2023/01/27 00:53:30;;;;;;;14.40;7.43;;;;;;;0.88;83.46;98362.28;5050335;28;20040;-81
2023/01/27 00:55:57;;;;;;;14.40;7.40;;;;;;;0.96;83.07;98354.72;5050001;28;20112;-81
2023/01/27 00:58:27;;;;;;;14.75;7.60;;;;;;;1.06;83.29;98359.88;5032550;28;20052;-80
2023/01/27 01:00:58;;;;;;;16.45;7.55;;;;;;;0.87;82.83;98357.25;5050484;28;20033;-80
2023/01/27 01:03:27;;;;;;;12.50;6.95;;;;;;;0.94;83.02;98361.75;5050359;28;20040;-81
2023/01/27 01:05:52;;;;;;;11.93;7.18;;;;;;;0.86;83.01;98363.38;5050735;28;20370;-81
2023/01/27 01:08:18;;;;;;;13.65;7.45;;;;;;;0.91;83.49;98366.38;5049919;28;20039;-80
2023/01/27 01:10:44;;;;;;;14.60;7.88;;;;;;;0.78;83.31;98367.44;5050128;28;20065;-81
2023/01/27 01:13:10;;;;;;;14.48;7.60;;;;;;;0.94;83.60;98376.44;5050213;28;20492;-80
2023/01/27 01:15:40;;;;;;;15.02;7.70;;;;;;;0.88;83.07;98388.09;5049989;28;20033;-81
2023/01/27 01:18:09;;;;;;;14.60;7.20;;;;;;;0.90;82.76;98377.63;5048904;28;20029;-81
2023/01/27 01:20:38;;;;;;;14.93;7.78;;;;;;;0.86;82.87;98374.50;5049722;28;20065;-80
2023/01/27 01:23:08;;;;;;;16.13;7.25;;;;;;;0.96;83.01;98370.22;5050055;28;20037;-81
2023/01/27 01:25:35;;;;;;;14.60;7.63;;;;;;;1.12;82.61;98380.00;5049598;28;20294;-80
2023/01/27 01:28:03;;;;;;;14.68;8.02;;;;;;;1.12;82.10;98376.63;5049426;28;20044;-80
2023/01/27 01:30:29;;;;;;;16.17;7.88;;;;;;;1.10;81.93;98371.59;5049209;28;20032;-81
2023/01/27 01:32:56;;;;;;;15.15;8.05;;;;;;;1.11;81.40;98369.81;5047287;28;20032;-81
2023/01/27 01:35:24;;;;;;;14.80;7.45;;;;;;;1.20;81.81;98382.75;5049719;28;20099;-80
2023/01/27 01:37:51;;;;;;;19.40;7.72;;;;;;;1.21;81.61;98375.81;5049871;28;20041;-81
2023/01/27 01:40:17;;;;;;;14.52;7.70;;;;;;;1.11;81.97;98378.38;5048572;28;20045;-80
2023/01/27 01:42:51;;;;;;;15.55;7.70;;;;;;;1.06;82.42;98372.78;5049393;28;20029;-80
2023/01/27 01:45:32;;;;;;;13.25;7.43;;;;;;;1.12;82.62;98374.03;5048501;28;20025;-81
2023/01/27 01:48:21;;;;;;;14.50;7.70;;;;;;;1.24;82.84;98376.34;5048682;28;20055;-81
2023/01/27 01:50:56;;;;;;;17.25;8.30;;;;;;;1.12;81.95;98364.50;5048580;28;20037;-80
2023/01/27 01:53:30;;;;;;;14.43;7.45;;;;;;;1.10;82.50;98363.84;5047454;28;20452;-81
2023/01/27 01:56:07;;;;;;;12.75;7.45;;;;;;;1.18;82.27;98365.75;5049142;28;20519;-80
2023/01/27 01:58:34;;;;;;;15.15;8.13;;;;;;;1.22;82.45;98370.53;5050001;28;20037;-81
2023/01/27 02:01:02;;;;;;;16.88;7.78;;;;;;;1.31;82.21;98380.03;5050023;28;20460;-81
2023/01/27 02:03:29;;;;;;;16.95;8.43;;;;;;;1.29;81.64;98361.28;5047856;28;20124;-80
2023/01/27 02:05:55;;;;;;;14.75;7.63;;;;;;;1.35;81.66;98380.59;5048841;28;20119;-80
2023/01/27 02:08:45;;;;;;;19.17;8.07;;;;;;;1.23;81.76;98366.97;5049138;28;20091;-81
2023/01/27 02:11:11;;;;;;;15.32;8.00;;;;;;;1.04;82.01;98372.13;5048847;28;20369;-81
2023/01/27 02:13:38;;;;;;;16.88;7.88;;;;;;;1.22;82.51;98377.47;5049131;28;20044;-80
2023/01/27 02:16:04;;;;;;;14.27;8.20;;;;;;;1.29;82.60;98373.38;5049820;28;20043;-80
2023/01/27 02:18:30;;;;;;;19.65;9.02;;;;;;;1.28;81.91;98374.34;5049717;28;20076;-81
2023/01/27 02:20:56;;;;;;;17.42;7.93;;;;;;;1.26;81.77;98377.06;5048938;28;20068;-80
2023/01/27 02:23:49;;;;;;;17.38;9.27;;;;;;;1.12;81.91;98368.88;5048777;28;20048;-80
2023/01/27 02:26:22;;;;;;;15.70;8.32;;;;;;;1.19;82.48;98365.59;5049032;28;20565;-80
2023/01/27 02:29:03;;;;;;;15.85;8.90;;;;;;;1.22;82.53;98361.94;5047747;28;20029;-81
2023/01/27 02:31:28;;;;;;;16.83;8.20;;;;;;;1.18;82.60;98363.97;5045420;28;20040;-81
2023/01/27 02:34:05;;;;;;;22.85;9.95;;;;;;;1.18;82.32;98360.56;5048787;28;20037;-80
2023/01/27 02:36:35;;;;;;;17.63;8.98;;;;;;;1.02;82.42;98368.84;5048603;28;20095;-81
2023/01/27 02:39:02;;;;;;;19.02;8.68;;;;;;;1.11;82.54;98362.06;5048380;28;20121;-81
2023/01/27 02:41:42;;;;;;;19.42;9.85;;;;;;;1.09;82.43;98359.63;5048596;28;20040;-80
2023/01/27 02:44:08;;;;;;;18.50;8.43;;;;;;;1.12;82.66;98367.09;5029873;28;20029;-81
2023/01/27 02:46:34;;;;;;;19.27;9.50;;;;;;;1.11;82.33;98357.72;5048933;28;20670;-81
2023/01/27 02:49:01;;;;;;;24.85;10.20;;;;;;;1.19;82.55;98364.78;5049282;28;20052;-81
2023/01/27 02:51:26;;;;;;;16.77;8.73;;;;;;;1.16;81.83;98359.91;5046469;28;20100;-80
2023/01/27 02:53:52;;;;;;;19.08;8.82;;;;;;;1.16;82.17;98359.91;5048313;28;20577;-81
2023/01/27 02:56:17;;;;;;;19.65;9.23;;;;;;;1.20;82.14;98356.09;5048719;28;20044;-81
2023/01/27 02:58:43;;;;;;;18.52;9.02;;;;;;;1.21;82.26;98358.56;5048402;28;20044;-80
2023/01/27 03:01:09;;;;;;;17.50;8.25;;;;;;;1.05;82.04;98356.47;5048015;28;20063;-81
2023/01/27 03:03:42;;;;;;;17.23;7.38;;;;;;;1.09;82.16;98357.03;5048626;28;20037;-81
2023/01/27 03:06:10;;;;;;;14.38;6.68;;;;;;;0.90;80.74;98355.22;5047014;28;20045;-80
2023/01/27 03:08:35;;;;;;;15.80;7.53;;;;;;;0.86;80.75;98366.78;5048484;28;20037;-81
2023/01/27 03:11:01;;;;;;;14.40;7.22;;;;;;;0.86;81.29;98374.50;5048889;28;20385;-80
2023/01/27 03:13:27;;;;;;;16.17;7.70;;;;;;;0.93;81.15;98372.22;5048544;28;20147;-81
2023/01/27 03:18:37;;;;;;;13.57;6.85;;;;;;;1.06;79.57;98371.03;5048339;28;20074;-81
2023/01/27 03:21:05;;;;;;;11.68;6.00;;;;;;;0.96;79.50;98379.69;5048080;28;20481;-81
2023/01/27 03:23:35;;;;;;;10.93;6.47;;;;;;;1.02;79.50;98384.31;5048930;28;20060;-81
2023/01/27 03:26:05;;;;;;;12.95;6.32;;;;;;;0.88;79.05;98376.97;5047180;28;20073;-81
2023/01/27 03:28:31;;;;;;;13.13;7.43;;;;;;;0.75;79.46;98372.84;5048333;28;20037;-80
2023/01/27 03:31:18;;;;;;;13.70;6.65;;;;;;;0.77;79.25;98370.94;5048240;28;20395;-81
2023/01/27 03:33:46;;;;;;;13.45;6.95;;;;;;;0.72;79.28;98370.53;5047860;28;20037;-81
2023/01/27 03:47:10;;;;;;;13.35;7.13;;;;;;;1.06;79.36;98375.38;5045787;28;20544;-81
2023/01/27 03:49:35;;;;;;;15.15;7.53;;;;;;;0.87;78.42;98367.59;5048248;28;20115;-80
2023/01/27 03:52:01;;;;;;;14.48;7.15;;;;;;;0.85;79.12;98372.88;5047842;28;20037;-81
2023/01/27 03:54:26;;;;;;;11.25;6.70;;;;;;;0.73;78.36;98369.59;5029493;28;20105;-81
2023/01/27 03:56:52;;;;;;;13.63;7.40;;;;;;;0.75;78.07;98366.88;5047945;28;20075;-81
2023/01/27 03:59:17;;;;;;;12.63;7.07;;;;;;;0.92;78.30;98368.00;5048350;28;20033;-82
2023/01/27 04:01:43;;;;;;;15.68;7.18;;;;;;;1.04;78.60;98379.88;5044931;28;20037;-83
2023/01/27 04:06:55;;;;;;;11.43;6.13;;;;;;;1.12;77.19;98372.25;5047441;28;20035;-83
2023/01/27 04:09:33;;;;;;;14.13;6.60;;;;;;;1.17;77.10;98366.69;5048634;28;20385;-83
2023/01/27 04:12:03;;;;;;;12.05;6.15;;;;;;;1.22;77.22;98369.72;5050645;28;20040;-83
2023/01/27 04:14:38;;;;;;;12.30;6.60;;;;;;;1.22;76.97;98373.09;5050997;28;20032;-83
2023/01/27 04:17:13;;;;;;;12.43;5.78;;;;;;;1.19;76.06;98375.94;5051565;28;20041;-82
2023/01/27 04:19:38;;;;;;;9.45;5.93;;;;;;;1.06;76.64;98381.34;5050694;28;20433;-82
2023/01/27 04:22:05;;;;;;;9.95;6.22;;;;;;;0.88;76.23;98374.38;5051448;28;20072;-83
2023/01/27 04:24:34;;;;;;;9.32;5.70;;;;;;;0.97;77.06;98371.84;5032381;28;20037;-82
2023/01/27 04:27:09;;;;;;;10.35;5.93;;;;;;;0.85;77.28;98377.25;5051028;28;20033;-83
2023/01/27 04:29:39;;;;;;;9.63;5.85;;;;;;;0.83;76.95;98373.94;5051245;28;20044;-83
2023/01/27 04:32:08;;;;;;;9.63;5.30;;;;;;;0.95;77.11;98386.63;5048938;28;20036;-82
2023/01/27 04:34:34;;;;;;;13.48;7.32;;;;;;;0.82;76.27;98382.66;5051191;28;20033;-83
2023/01/27 04:37:02;;;;;;;10.98;6.15;;;;;;;0.89;76.87;98383.75;5050554;28;20115;-83
2023/01/27 04:39:28;;;;;;;9.55;5.85;;;;;;;0.87;76.92;98376.16;5050756;28;20037;-82
2023/01/27 04:41:55;;;;;;;10.73;6.00;;;;;;;1.00;77.17;98396.56;5050744;28;20373;-83
2023/01/27 04:44:22;;;;;;;10.95;5.78;;;;;;;0.99;76.64;98385.41;5050787;28;20064;-83
2023/01/27 04:46:48;;;;;;;11.77;6.18;;;;;;;0.93;77.13;98396.28;5050297;28;20155;-83
2023/01/27 04:49:14;;;;;;;11.77;6.13;;;;;;;0.95;77.04;98393.56;5050497;28;20044;-81
2023/01/27 04:51:40;;;;;;;12.23;6.18;;;;;;;1.04;77.38;98390.19;5050233;28;20032;-81
2023/01/27 04:54:06;;;;;;;12.73;6.70;;;;;;;0.93;76.09;98406.59;5033066;28;20124;-80
2023/01/27 04:56:49;;;;;;;13.93;6.80;;;;;;;0.82;76.37;98392.97;5050578;28;20048;-81
2023/01/27 04:59:14;;;;;;;14.35;6.80;;;;;;;0.79;76.80;98389.72;5031289;28;20048;-81
2023/01/27 05:01:40;;;;;;;12.70;6.82;;;;;;;0.83;76.91;98384.28;5049665;28;20400;-81
2023/01/27 05:04:06;;;;;;;12.93;7.10;;;;;;;0.73;76.75;98379.91;5051033;28;20037;-81
2023/01/27 05:06:32;;;;;;;12.10;6.60;;;;;;;0.70;76.63;98385.31;5050461;28;20116;-81
2023/01/27 05:08:58;;;;;;;11.52;7.00;;;;;;;0.87;77.36;98390.81;5049801;28;20129;-81
2023/01/27 05:11:23;;;;;;;13.15;7.20;;;;;;;0.96;77.42;98377.94;5050171;28;20115;-81
2023/01/27 05:13:49;;;;;;;10.57;6.18;;;;;;;1.04;77.01;98387.63;5050214;28;20029;-81
2023/01/27 05:16:22;;;;;;;10.88;6.50;;;;;;;0.97;76.16;98394.25;5050364;28;20041;-81
2023/01/27 05:18:49;;;;;;;14.57;6.88;;;;;;;0.97;76.72;98392.50;5049263;28;20052;-81
2023/01/27 05:21:23;;;;;;;11.98;6.13;;;;;;;0.74;76.50;98394.44;5030423;28;20033;-81
2023/01/27 05:23:48;;;;;;;12.32;7.13;;;;;;;0.77;77.36;98383.03;5049453;28;20498;-81
2023/01/27 05:26:20;;;;;;;10.68;5.70;;;;;;;0.78;77.29;98395.84;5050144;28;20112;-81
2023/01/27 05:28:48;;;;;;;13.10;6.45;;;;;;;0.88;78.02;98402.78;5049595;28;20032;-81
2023/01/27 05:31:21;;;;;;;14.35;7.80;;;;;;;0.96;77.65;98396.03;5046959;28;20033;-81
2023/01/27 05:33:50;;;;;;;14.25;7.25;;;;;;;1.07;77.60;98408.81;5048614;28;20032;-81
2023/01/27 05:36:18;;;;;;;12.55;7.95;;;;;;;0.94;76.75;98410.81;5049660;28;20476;-81
2023/01/27 05:38:44;;;;;;;11.68;6.70;;;;;;;0.80;76.30;98400.88;5048098;28;20209;-81
2023/01/27 05:41:12;;;;;;;11.32;5.93;;;;;;;0.76;76.32;98400.28;5049709;28;20033;-81
2023/01/27 05:43:41;;;;;;;11.63;5.80;;;;;;;0.67;76.42;98397.69;5048707;28;20056;-81
2023/01/27 05:46:09;;;;;;;11.40;6.10;;;;;;;0.69;76.29;98404.34;5048311;28;20056;-82
2023/01/27 05:48:37;;;;;;;10.68;5.93;;;;;;;0.77;76.62;98395.94;5049659;28;20037;-83
2023/01/27 05:51:05;;;;;;;11.65;6.25;;;;;;;0.86;76.75;98415.84;5031956;28;20147;-83
2023/01/27 05:53:31;;;;;;;12.25;6.47;;;;;;;0.87;76.37;98416.66;5049436;28;20040;-83
2023/01/27 05:55:57;;;;;;;12.82;6.63;;;;;;;0.60;75.79;98425.78;5046045;28;20429;-82
2023/01/27 05:58:24;;;;;;;10.48;5.63;;;;;;;0.49;75.65;98424.09;5049434;28;20052;-82
2023/01/27 06:00:51;;;;;;;14.48;6.97;;;;;;;0.51;76.95;98414.44;5048815;28;20029;-82
2023/01/27 06:03:17;;;;;;;12.73;6.50;;;;;;;0.56;76.88;98429.56;5049746;28;20396;-82
2023/01/27 06:05:56;;;;;;;12.25;7.47;;;;;;;0.50;77.32;98430.88;5031205;28;20116;-82
2023/01/27 06:08:25;;;;;;;12.02;5.30;;;;;;;0.52;76.89;98428.97;5048641;28;20037;-82
2023/01/27 06:10:52;;;;;;;9.88;5.75;;;;;;;0.42;76.31;98427.28;5049232;28;20461;-82
2023/01/27 06:13:20;;;;;;;14.38;6.95;;;;;;;0.43;76.74;98421.22;5049557;28;20059;-82
2023/01/27 06:15:47;;;;;;;17.02;8.48;;;;;;;0.50;76.91;98440.41;5048993;28;20029;-82
2023/01/27 06:18:15;;;;;;;13.07;6.18;;;;;;;0.46;77.08;98442.41;5048163;28;20037;-82
2023/01/27 06:20:41;;;;;;;13.63;7.38;;;;;;;0.39;78.10;98453.38;5048640;28;20388;-82
2023/01/27 06:23:09;;;;;;;12.30;6.50;;;;;;;0.46;77.79;98454.50;5048487;28;20036;-82
2023/01/27 06:25:41;;;;;;;12.73;6.85;;;;;;;0.66;77.62;98448.50;5048720;28;20041;-82
2023/01/27 06:28:07;;;;;;;15.80;7.75;;;;;;;0.69;77.45;98455.97;5048457;28;20044;-82
2023/01/27 06:30:35;;;;;;;12.73;6.85;;;;;;;0.62;77.07;98454.84;5048155;28;20024;-82
2023/01/27 06:33:02;;;;;;;15.98;7.18;;;;;;;0.56;76.65;98459.72;5027527;28;20088;-82
2023/01/27 06:35:29;;;;;;;13.57;6.93;;;;;;;0.54;76.88;98452.13;5046317;28;20037;-82
2023/01/27 06:37:57;;;;;;;12.82;6.80;;;;;;;0.56;76.65;98454.56;5048432;28;20825;-82
2023/01/27 06:40:29;;;;;;;10.73;6.80;;;;;;;0.51;76.18;98462.69;5030685;28;20098;-82
2023/01/27 06:42:55;;;;;;;11.07;6.50;;;;;;;0.59;76.49;98470.59;5030189;28;20036;-82
2023/01/27 06:45:21;;;;;;;14.35;7.03;;;;;;;0.62;76.60;98464.38;5048439;28;20039;-82
2023/01/27 06:47:57;;;;;;;14.13;7.47;;;;;;;0.58;76.14;98468.13;5048452;28;20519;-82
2023/01/27 06:50:25;;;;;;;10.63;6.82;;;;;;;0.60;76.31;98472.25;5047040;28;20035;-82
2023/01/27 06:52:51;;;;;;;12.07;6.30;;;;;;;0.49;75.98;98480.06;5048488;28;20060;-82
2023/01/27 06:55:18;;;;;;;12.52;6.63;;;;;;;0.42;76.40;98473.75;5047470;28;20041;-82
2023/01/27 06:57:47;;;;;;;13.68;7.18;;;;;;;0.42;76.54;98468.59;5048304;28;20056;-82
2023/01/27 07:00:15;;;;;;;13.00;7.00;;;;;;;0.39;76.79;98472.25;5048608;28;20083;-82
2023/01/27 07:02:41;;;;;;;14.77;7.03;;;;;;;0.45;76.81;98473.50;5048713;28;20033;-82
2023/01/27 07:05:07;;;;;;;12.82;6.13;;;;;;;0.44;76.64;98477.03;5030877;28;20433;-81
2023/01/27 07:07:32;;;;;;;15.15;7.28;;;;;;;0.38;76.88;98469.78;5047629;28;20166;-82
2023/01/27 07:09:58;;;;;;;14.45;6.50;;;;;;;0.43;76.98;98475.41;5029645;28;20146;-82
2023/01/27 07:12:23;;;;;;;12.63;6.97;;;;;;;0.33;76.95;98477.09;5048155;28;20045;-81
2023/01/27 07:14:49;;;;;;;11.95;6.57;;;;;;;0.34;77.39;98470.97;5047947;28;20108;-82
2023/01/27 07:17:14;;;;;;;14.18;6.97;;;;;;;0.52;77.96;98478.03;5046164;28;20032;-82
2023/01/27 07:19:40;;;;;;;13.48;6.63;;;;;;;0.42;76.74;98468.59;5047979;28;20520;-82
2023/01/27 07:22:05;;;;;;;14.85;7.00;;;;;;;0.49;76.80;98485.22;5048373;28;20412;-82
2023/01/27 07:24:31;;;;;;;16.60;7.30;;;;;;;0.66;77.24;98487.22;5047381;28;20041;-82
2023/01/27 07:26:56;;;;;;;12.25;6.43;;;;;;;0.72;76.58;98476.38;5048283;28;20100;-82
2023/01/27 07:29:22;;;;;;;14.80;7.00;;;;;;;0.77;76.55;98478.56;5047018;28;20037;-82
2023/01/27 07:31:47;;;;;;;13.35;6.82;;;;;;;0.82;76.08;98485.94;5044001;28;20061;-82
2023/01/27 07:34:13;;;;;;;14.70;7.07;;;;;;;0.80;76.20;98494.63;5048295;28;20029;-82
2023/01/27 07:36:38;;;;;;;12.10;6.32;;;;;;;0.86;76.26;98502.81;5047743;28;20040;-82
2023/01/27 07:39:04;;;;;;;14.05;7.47;;;;;;;0.74;75.56;98502.88;5046987;28;20579;-82
2023/01/27 07:41:32;;;;;;;15.77;7.13;;;;;;;0.87;76.16;98509.63;5047263;28;20366;-81
2023/01/27 07:43:57;;;;;;;14.23;6.75;;;;;;;0.68;76.48;98512.91;5046644;28;20032;-82
2023/01/27 07:46:23;;;;;;;14.75;7.47;;;;;;;0.68;75.81;98505.97;5051012;28;20124;-82
2023/01/27 07:48:48;;;;;;;10.88;6.13;;;;;;;0.83;76.32;98510.81;5051661;28;20523;-82
2023/01/27 07:51:15;;;;;;;11.38;6.65;;;;;;;1.01;76.13;98511.84;5051601;28;20028;-82
2023/01/27 07:53:40;;;;;;;13.07;6.55;;;;;;;1.02;75.38;98504.00;5033774;28;20057;-82
2023/01/27 07:56:11;;;;;;;10.95;6.05;;;;;;;0.75;75.15;98501.94;5051764;28;20082;-82
2023/01/27 07:58:41;;;;;;;13.13;6.85;;;;;;;0.83;75.89;98509.03;5050808;28;20048;-82
2023/01/27 08:01:09;;;;;;;13.93;6.47;;;;;;;0.74;75.68;98500.31;5051324;28;20029;-82
2023/01/27 08:03:36;;;;;;;13.32;6.40;;;;;;;0.85;76.25;98511.50;5033650;28;20029;-83
2023/01/27 08:06:11;;;;;;;11.23;6.60;;;;;;;0.97;76.27;98503.56;5052676;28;20043;-84
2023/01/27 08:08:37;;;;;;;7.82;5.10;;;;;;;0.87;75.44;98505.25;5052566;28;20064;-84
2023/01/27 08:11:07;;;;;;;12.65;6.57;;;;;;;0.94;75.53;98508.16;5045709;28;20048;-85
2023/01/27 08:13:34;;;;;;;11.82;6.03;;;;;;;1.00;75.00;98505.88;5034817;28;20035;-84
2023/01/27 08:16:04;;;;;;;13.32;6.70;;;;;;;0.89;74.65;98498.19;5048310;28;20527;-84
2023/01/27 08:18:32;;;;;;;16.17;6.78;;;;;;;0.91;75.39;98509.22;5031401;28;20056;-84
2023/01/27 08:21:04;;;;;;;12.55;6.20;;;;;;;0.89;75.20;98518.03;5052486;28;20044;-85
2023/01/27 08:23:31;;;;;;;14.38;7.72;;;;;;;1.02;75.53;98526.41;5045853;28;20511;-84
2023/01/27 08:26:00;;;;;;;13.35;6.70;;;;;;;1.09;75.17;98519.78;5030345;28;20116;-84
2023/01/27 08:28:29;;;;;;;13.07;6.40;;;;;;;0.93;74.51;98522.81;5045415;28;20033;-84
2023/01/27 08:31:08;;;;;;;15.73;6.43;;;;;;;0.88;74.65;98524.97;5052240;28;20033;-85
2023/01/27 08:33:35;;;;;;;12.32;6.38;;;;;;;0.95;74.95;98527.84;5051233;28;20076;-84
2023/01/27 08:36:04;;;;;;;13.93;6.07;;;;;;;1.19;75.30;98509.47;5052093;28;20134;-84
2023/01/27 08:38:29;;;;;;;12.23;6.63;;;;;;;1.36;74.42;98528.72;5050781;28;20069;-84
2023/01/27 08:40:55;;;;;;;15.68;7.13;;;;;;;1.39;74.45;98525.91;5051774;28;20093;-84
2023/01/27 08:43:20;;;;;;;12.45;6.30;;;;;;;1.23;73.04;98529.75;5051751;28;20025;-84
2023/01/27 08:45:46;;;;;;;16.45;6.95;;;;;;;1.30;73.32;98523.13;5052270;28;20496;-84
2023/01/27 08:48:11;;;;;;;15.07;6.45;;;;;;;1.34;73.13;98532.25;5026135;28;20663;-86
2023/01/27 08:50:37;;;;;;;13.80;5.90;;;;;;;1.43;73.01;98532.41;5052106;28;20473;-85
2023/01/27 08:53:03;;;;;;;15.13;6.70;;;;;;;1.34;73.40;98528.84;5051828;28;20515;-85
2023/01/27 08:55:31;;;;;;;12.57;6.38;;;;;;;1.24;73.46;98526.22;5051500;28;20433;-85
2023/01/27 08:57:58;;;;;;;13.52;6.65;;;;;;;1.31;73.79;98524.75;5049983;28;20093;-85
2023/01/27 09:00:24;;;;;;;11.57;6.10;;;;;;;1.32;72.89;98526.41;5051904;28;20396;-85
2023/01/27 09:02:50;;;;;;;16.50;6.78;;;;;;;1.54;73.72;98525.38;5040710;28;20056;-85
2023/01/27 09:05:17;;;;;;;13.23;6.78;;;;;;;1.51;72.63;98522.25;5048146;28;20036;-85
2023/01/27 09:07:45;;;;;;;15.38;6.57;;;;;;;1.52;72.11;98529.06;5051793;28;20044;-85
2023/01/27 09:10:12;;;;;;;13.10;6.22;;;;;;;1.74;73.37;98534.03;5051772;28;20108;-85
2023/01/27 09:12:39;;;;;;;13.90;6.18;;;;;;;1.95;72.52;98518.38;5044756;28;20040;-85
2023/01/27 09:15:06;;;;;;;11.15;6.45;;;;;;;1.96;71.29;98530.34;5043281;28;20104;-85
2023/01/27 09:17:31;;;;;;;13.27;6.15;;;;;;;2.07;72.21;98534.59;5047884;28;20033;-86
2023/01/27 09:19:57;;;;;;;10.70;5.68;;;;;;;2.15;72.68;98532.16;5032603;28;20041;-85
2023/01/27 09:22:22;;;;;;;9.50;5.20;;;;;;;1.75;71.27;98527.06;5016329;28;20536;-85
2023/01/27 09:24:48;;;;;;;16.33;6.53;;;;;;;1.55;72.06;98531.38;5050812;28;20037;-84
2023/01/27 09:27:13;;;;;;;12.23;5.97;;;;;;;1.64;73.29;98546.09;5051208;28;20039;-85
2023/01/27 09:29:39;;;;;;;10.68;5.97;;;;;;;1.86;74.26;98551.06;5050810;28;20119;-85
2023/01/27 09:32:07;;;;;;;13.75;5.72;;;;;;;1.71;73.05;98541.22;5047970;28;20094;-84
2023/01/27 09:34:34;;;;;;;11.75;5.78;;;;;;;1.76;73.05;98549.41;5051092;28;20041;-84
2023/01/27 09:37:09;;;;;;;10.85;5.57;;;;;;;1.50;72.41;98544.72;5048566;28;20037;-85
2023/01/27 09:39:44;;;;;;;9.90;5.65;;;;;;;1.74;73.79;98553.88;5044944;28;20033;-85
2023/01/27 09:42:31;;;;;;;11.27;6.15;;;;;;;1.44;73.57;98557.31;5043255;28;20041;-84
2023/01/27 09:45:35;;;;;;;12.73;5.63;;;;;;;1.76;75.08;98555.38;5047479;28;20043;-85
2023/01/27 09:48:30;;;;;;;10.10;5.63;;;;;;;1.66;73.11;98564.06;5043021;28;20064;-85
2023/01/27 09:51:36;;;;;;;19.25;6.47;;;;;;;1.81;74.08;98562.75;5045345;28;20040;-85
2023/01/27 09:54:01;;;;;;;11.50;5.20;;;;;;;1.93;73.82;98560.88;5048527;28;20041;-85
2023/01/27 09:57:04;;;;;;;11.18;5.72;;;;;;;1.88;73.13;98556.09;5051083;28;20048;-85
2023/01/27 10:00:04;;;;;;;10.18;5.22;;;;;;;1.93;73.21;98547.94;5037294;28;20488;-85
2023/01/27 10:03:01;;;;;;;13.18;5.32;;;;;;;2.17;72.94;98544.97;5048327;28;20045;-84
2023/01/27 10:06:15;;;;;;;13.00;5.35;;;;;;;2.46;73.77;98532.00;5050178;28;20052;-85
2023/01/27 10:09:15;;;;;;;12.30;5.45;;;;;;;2.60;71.98;98541.97;5047320;28;20065;-85
2023/01/27 10:12:21;;;;;;;11.38;5.03;;;;;;;2.45;70.68;98548.50;5037515;28;20033;-84
2023/01/27 10:15:42;;;;;;;10.68;5.25;;;;;;;2.65;71.66;98547.53;5048664;28;20669;-85
2023/01/27 10:18:37;;;;;;;9.73;5.22;;;;;;;2.49;72.06;98553.28;5050387;28;20033;-85
2023/01/27 10:21:41;;;;;;;9.90;5.25;;;;;;;2.67;72.57;98559.38;5049778;28;20442;-84
2023/01/27 10:24:43;;;;;;;9.63;5.45;;;;;;;2.53;71.03;98564.19;5004273;28;21042;-85
2023/01/27 10:27:35;;;;;;;7.25;4.32;;;;;;;2.39;71.48;98566.22;5047338;28;20468;-85
2023/01/27 10:30:14;;;;;;;11.82;5.22;;;;;;;2.30;71.74;98574.81;5038340;28;20121;-85
2023/01/27 10:33:09;;;;;;;9.48;5.07;;;;;;;2.26;71.67;98576.00;5032864;28;20120;-85
2023/01/27 10:35:52;;;;;;;9.02;5.15;;;;;;;2.11;71.91;98567.03;5045497;28;20045;-85
2023/01/27 10:38:29;;;;;;;7.07;3.55;;;;;;;1.86;71.62;98566.59;5044368;28;20065;-85
2023/01/27 10:41:09;;;;;;;7.70;4.60;;;;;;;1.93;72.01;98577.22;5046026;28;20442;-85
2023/01/27 10:43:53;;;;;;;10.55;5.03;;;;;;;1.96;72.56;98571.75;5048167;28;20044;-85
2023/01/27 10:46:54;;;;;;;8.55;4.95;;;;;;;1.96;72.94;98565.75;5048837;28;20064;-84
2023/01/27 10:49:27;;;;;;;10.98;5.25;;;;;;;1.95;72.16;98566.72;4961287;28;20549;-84
2023/01/27 10:52:09;;;;;;;11.80;5.43;;;;;;;2.05;73.44;98550.28;5048272;28;20079;-85
2023/01/27 10:54:57;;;;;;;9.45;5.18;;;;;;;2.09;71.27;98550.78;5045178;28;20057;-85
2023/01/27 10:57:37;;;;;;;10.20;5.20;;;;;;;2.17;71.45;98557.91;5047032;28;20033;-85
2023/01/27 11:00:30;;;;;;;10.10;5.03;;;;;;;2.33;72.44;98558.97;5049067;28;20036;-84
2023/01/27 11:03:12;;;;;;;8.27;4.65;;;;;;;2.34;71.80;98555.47;5031783;28;20571;-84
2023/01/27 11:05:50;;;;;;;8.77;5.30;;;;;;;2.59;72.78;98558.44;5046009;28;20128;-85
2023/01/27 11:08:20;;;;;;;10.60;5.40;;;;;;;2.69;71.50;98556.66;5044834;28;20045;-85
2023/01/27 11:13:39;;;;;;;11.18;5.25;;;;;;;2.81;69.32;98545.19;5049787;28;20082;-85
2023/01/27 11:16:15;;;;;;;8.38;4.60;;;;;;;2.81;68.54;98536.59;5049937;28;20029;-85
2023/01/27 11:18:42;;;;;;;6.03;4.13;;;;;;;2.77;67.89;98535.25;5050922;28;20029;-85
2023/01/27 11:21:25;;;;;;;6.75;4.03;;;;;;;2.79;68.31;98539.34;5053721;28;20388;-85
2023/01/27 11:23:58;;;;;;;8.88;4.60;;;;;;;2.88;68.71;98548.88;5050239;28;20041;-85
2023/01/27 11:26:30;;;;;;;6.90;3.92;;;;;;;2.72;67.37;98548.63;5044945;28;20393;-85
2023/01/27 11:29:40;;;;;;;7.93;4.40;;;;;;;2.50;67.98;98543.72;5050253;28;20055;-84
2023/01/27 11:32:40;;;;;;;7.22;4.05;;;;;;;2.55;68.60;98541.53;5045333;28;20657;-85
2023/01/27 11:35:12;;;;;;;7.22;4.30;;;;;;;2.73;69.88;98539.88;5048995;28;20036;-85
2023/01/27 11:37:41;;;;;;;6.47;3.70;;;;;;;2.58;69.58;98538.66;5053523;28;20468;-85
2023/01/27 11:40:24;;;;;;;8.55;4.50;;;;;;;2.77;69.83;98541.25;5031257;28;20045;-85
2023/01/27 11:42:50;;;;;;;10.00;4.88;;;;;;;2.80;69.21;98538.38;5044088;28;20040;-84
2023/01/27 11:45:19;;;;;;;9.07;4.68;;;;;;;2.95;70.08;98534.38;5045455;28;20044;-85
2023/01/27 11:47:51;;;;;;;8.30;4.60;;;;;;;2.76;68.14;98518.91;5051889;28;20037;-85
2023/01/27 11:50:21;;;;;;;8.40;4.05;;;;;;;2.45;68.79;98520.00;5046224;28;20076;-85
2023/01/27 11:52:55;;;;;;;11.75;4.40;;;;;;;2.78;71.02;98516.97;5052958;28;20076;-85
2023/01/27 11:55:39;;;;;;;6.80;4.50;;;;;;;2.94;71.14;98524.19;5052027;28;20045;-85
2023/01/27 11:58:24;;;;;;;8.15;4.15;;;;;;;3.01;69.50;98519.25;5053553;28;20067;-85
2023/01/27 12:00:59;;;;;;;6.25;4.10;;;;;;;2.85;68.16;98515.47;5048979;28;20136;-85
2023/01/27 12:03:49;;;;;;;8.55;4.60;;;;;;;2.62;68.32;98509.78;5043317;28;20060;-85
2023/01/27 12:06:29;;;;;;;8.60;4.83;;;;;;;2.86;71.33;98509.31;5046857;28;20037;-84
2023/01/27 12:08:55;;;;;;;6.85;4.00;;;;;;;3.06;70.12;98509.25;5050685;28;20429;-85
2023/01/27 12:11:30;;;;;;;6.18;4.32;;;;;;;3.05;68.83;98517.97;5052928;28;20108;-85
2023/01/27 12:14:00;;;;;;;8.45;5.07;;;;;;;3.03;68.63;98509.53;5050908;28;20037;-85
2023/01/27 12:16:51;;;;;;;8.68;4.60;;;;;;;3.19;70.45;98508.00;5053022;28;20041;-85
2023/01/27 12:19:30;;;;;;;6.90;4.38;;;;;;;3.27;69.72;98511.63;5040884;28;20037;-85
2023/01/27 12:22:05;;;;;;;6.30;4.60;;;;;;;3.22;68.34;98512.88;5051600;28;20103;-85